Z19O weather

Wujah Al Hajar Air Base
Hamat, North Governorate, Lebanon

Public forecast

Using degrees Celsius for public forecast. Weather courtesy of forecast.io.

Closest aviation weather report (METAR) to Wujah Al Hajar Air Base

Closest report is Beirut Rafic Hariri International Airport, 29.2 nm (54.1 km) SSW. Retrieved 2019/12/13 04:00 UTC (50 minutes ago):

OLBA 130400Z 16011KT 9999 BKN027 16/10 Q1011 NOSIG

Closest aviation forecast (TAF) to Wujah Al Hajar Air Base

Forecast is more than 12 hours old.

Closest forecast is Beirut Rafic Hariri International Airport, 29.2 nm (54.1 km) SSW. Retrieved 2019/12/12 12:43 UTC (16 hours ago):

TAF COR OLBA 121000Z 1212/1318 24010G20KT 7000 -RA FEW023TCU BKN025 TEMPO 1212/1318 RA PROB40 TEMPO 1212/1312 22020G35KT 5000 TSRA FEW020CB BKN025 PROB30 TEMPO 1212/1306 2000 TSGRRA FEW018CB BKN023